空港情報

日本の空港の気象及び、管制情報です。
気象情報はより詳細な情報が取得できる「AVIATION WEATER CENTER」 から取得しているため、VATSIMの気象情報と若干のタイムラグが生じることがあります。

VRCのフィールド設定用空港一覧はこちらをご覧ください。

RJCG Sapporo Control

RJCW / Wakkanai
VMC

NO RADAR

RADIO

08/26 2200x45

民間 civil

9999

180@8KT

29.59

RJCW 230900Z 18008KT 9999 FEW060 SCT120 BKN150 15/09 Q1002

RJER / Rishiri

NO RADAR

REMOTE

25/07 1800x45

民間 civil

過去5時間に発表されたMETARがありません。

RJEB / Monbetsu

NO RADAR

REMOTE

32/14 2000x45

民間 civil

過去5時間に発表されたMETARがありません。

RJCM / Memanbetsu
VMC

NO RADAR

TOWER

36/18 2500x45

民間 civil

9999

200@16KT

29.62

RJCM 231100Z 20016KT 9999 FEW020 SCT140 BKN150 18/08 Q1003

RJEC / Asahikawa
VMC

NO RADAR

TOWER

34/16 2500x60

民間 civil

9999

180@7KT

29.59

RJEC 231100Z 18007KT 9999 FEW040 SCT080 BKN100 19/06 Q1002

RJCN / Nakashibetsu
VMC

NO RADAR

RADIO

08/26 2000x45

民間 civil

9999

230@14KT

29.70

RJCN 230900Z 23014KT 9999 FEW025 SCT170 BKN/// 17/12 Q1006

RJCK / Kushiro
IMC

NO RADAR

TOWER

17/35 2500x45

民間 civil

8000

190@12KT

29.70

RJCK 231105Z 19012KT 8000 FEW001 BKN003 BKN004 11/11 Q1006 RMK 1ST001 5ST003 7ST004 A2972

RJCO / Sapporo
VMC

RJCO_APP

TOWER

14/32 1500x30

共用 dual

9999

170@13G24KT

29.62

RJCO 230902Z 17013G24KT 9999 FEW030 BKN120 BKN150 15/10 Q1003 RMK 1CU030 5AC120 7AC150 A2963

RJCJ / Chitose

RJCC_APP

TOWER

36R/18L 3000x60
36L/18R 2700x45

自衛隊 military

過去5時間に発表されたMETARがありません。

RJCC / NewChitose
VMC

RJCC_APP

TOWER

01L/19R 3000x60
01R/19L 3000x60

民間 civil

8000

160@12KT

29.68

RJCC 231230Z 16012KT 8000 -SHRA FEW010 SCT040 BKN070 11/10 Q1005 RMK 1ST010 4CU040 7AC070 A2968

RJCB / Obihiro
VMC

NO RADAR

TOWER

35/17 2500x45

民間 civil

9999

170@11KT

29.62

RJCB 231100Z 17011KT 9999 FEW030 BKN150 BKN/// 16/10 Q1003

RJEO / Okushiri

NO RADAR

REMOTE

12/30 1500x45

民間 civil

過去5時間に発表されたMETARがありません。

RJCH / Hakodate
VMC

RJCH_APP

TOWER

12/30 3000x45

民間 civil

9999

130@3KT

29.65

RJCH 231100Z 13003KT 9999 -SHRA SCT030 BKN050 BKN070 13/12 Q1004

RJSA / Aomori
VMC

NO RADAR

TOWER

24/06 3000x60

民間 civil

9999

100@4KT

29.68

RJSA 231200Z 10004KT 9999 FEW040 BKN060 BKN080 15/11 Q1005

RJSO / Ominato

RJSM_APP

TOWER

04/22 600x45

自衛隊 military

過去5時間に発表されたMETARがありません。

RJSM / Misawa

RJSM_APP

TOWER

10/28 3050x45

共用 dual

過去5時間に発表されたMETARがありません。

RJSH / Hachinohe

RJSM_APP

TOWER

25/07 2250x45

自衛隊 military

過去5時間に発表されたMETARがありません。

RJSK / Akita
VMC

NO RADAR

TOWER

10/28 2500x60

民間 civil

9999

330@3KT

29.70

RJSK 231200Z 33003KT 290V350 9999 FEW007 BKN050 BKN070 15/13 Q1006

RJSI / Hanamaki
VMC

NO RADAR

RADIO

20/02 2500x45

民間 civil

9999

150@7KT

29.70

RJSI 231000Z 15007KT 120V180 9999 -SHRA FEW030 SCT040 BKN070 16/14 Q1006

RJSR / Odate-Noshiro
VMC

NO RADAR

REMOTE

11/29 2000x45

民間 civil

9999

260@3KT

29.68

RJSR 231000Z 26003KT 9999 FEW010 SCT050 BKN070 15/15 Q1005

RJTG Tokyo Control

RJSY / Shonai
VMC

NO RADAR

RADIO

09/27 2000x45

民間 civil

9999

100@4KT

29.70

RJSY 231200Z 10004KT 070V150 9999 FEW020 SCT035 BKN050 15/14 Q1006

RJSC / Yamagata
VMC

NO RADAR

RADIO

01/19 2000x45

民間 civil

9999

000@2KT

29.70

RJSC 231000Z VRB02KT 9999 -RA FEW010 SCT040 BKN080 17/15 Q1006

RJST / Matsushima

RJSS_APP

TOWER

07/25 2071x46
15/33 1500x46

自衛隊 military

過去5時間に発表されたMETARがありません。

RJSS / Sendai
IMC

RJSS_APP

TOWER

27/09 3000x45
12/30 1200x45

民間 civil

4000

160@8KT

29.70

RJSS 231200Z 16008KT 4000 -RA BR FEW002 SCT050 BKN080 17/17 Q1006

RJSD / Sado

NO RADAR

REMOTE

10/28 890x25

民間 civil

過去5時間に発表されたMETARがありません。

RJSN / Niigata
VMC

RJSN_APP

TOWER

10/28 2500x45
04/22 1314x45

民間 civil

9999

290@4KT

29.70

RJSN 231200Z 29004KT 260V330 9999 -SHRA FEW030 SCT040 BKN050 16/15 Q1006

RJSF / Fukushima
IMC

NO RADAR

RADIO

01/19 2500x60

民間 civil

4000

140@3KT

29.73

RJSF 231122Z 14003KT 4000 -RA BR SCT015 BKN020 15/15 Q1007 RMK 3SC015 7SC020 A2975

RJAH / Ibaraki/Hyakuri
IMC

RJAH_APP

TOWER

03L/21R 2700x45
03R/21L 2700x45

共用 dual

1600

050@4KT

29.68

RJAH 231241Z 05004KT 1600 SHRA BR FEW001 BKN002 OVC004 18/17 Q1005 RMK 2ST001 5ST002 8ST004 A2968 VIS SE-SW 1200M

RJTT / Tokyo
IMC

RJTT_APP

TOWER

34LR/16RL 3000x60
04/22&05/23 2500x60

民間 civil

2200

360@4KT

29.68

RJTT 231230Z 36004KT 2200 RA BR FEW002 BKN003 BKN005 19/19 Q1005 NOSIG RMK 2ST002 5ST003 7ST005 A2969

RJAA / Narita
IMC

RJTT_APP

TOWER

34L/16R 4000x60
34R/16L 2500x60

民間 civil

4000

140@8KT

29.68

RJAA 231230Z 14008KT 120V180 4000 -RA BR FEW003 BKN004 BKN006 19/19 Q1005 BECMG TL1400 04005KT TEMPO 3000 -RA BR

RJTL / Shimofusa
IMC

RJTT_APP

TOWER

19/01 2250x45

自衛隊 military

2400

360@2KT

29.68

RJTL 231233Z 36002KT 2400 R19/1700D -RA BR SCT003 BKN008 18/18 Q1005 RMK 3ST003 7ST008 A2968

RJTE / Tateyama
IMC

RJTT_APP

TOWER

09/27 300x45

自衛隊 military

3500

070@5KT

29.68

RJTE 231009Z 07005KT 3500 SHRA BR FEW003 SCT005 BKN008 19/19 Q1005 RMK 1ST003 4ST005 6ST008 A2970

RJTO / Oshima

NO RADAR

RADIO

03/21 1800x45

民間 civil

過去5時間に発表されたMETARがありません。

RJTK / Kisarazu
IMC

NO RADAR

TOWER

02/20 1830x45

自衛隊 military

4000

060@3KT

29.70

RJTK 230825Z 06003KT 4000 -RA BR FEW007 BKN010 BKN020 19/18 Q1006 RMK 2ST007 6SC010 7SC020 A2973

RJAN / Niijima

NO RADAR

REMOTE

11/29 800x25

自衛隊 military

過去5時間に発表されたMETARがありません。

RJAZ / Kozushima

NO RADAR

REMOTE

11/29 800x25

民間 civil

過去5時間に発表されたMETARがありません。

RJTH / Hachijojima

NO RADAR

RADIO

26/08 2000x45

民間 civil

過去5時間に発表されたMETARがありません。

RJTF / Chofu
IMC

NO RADAR

Flight Service

35/17 800x30

民間 civil

3000

000@1KT

29.73

RJTF 230811Z VRB01KT 3000 -RA BR FEW010 BKN020 18/16 Q1007 RMK 2ST010 7SC020 A2974

RJTQ / Miyake

NO RADAR

REMOTE

02/20 1200x30

民間 civil

過去5時間に発表されたMETARがありません。

RJTC / Tachikawa

NO RADAR

TOWER

01/19 900x45

自衛隊 military

過去5時間に発表されたMETARがありません。

RJTA / Atsugi

NO RADAR

TOWER

01/19 2438x45

自衛隊 military

過去5時間に発表されたMETARがありません。

RJTU / Utsunomiya

RJTY_APP

TOWER

01/19 1700x45

自衛隊 military

過去5時間に発表されたMETARがありません。

RJTJ / Iruma

RJTY_APP

TOWER

17/35 2000x45

自衛隊 military

過去5時間に発表されたMETARがありません。

RJTY / Yokota
IMC

RJTY_APP

TOWER

18/36 3353x60

自衛隊 military

6400

030@6KT

29.74

RJTY 231245Z 03006KT 4SM -DZ BR BKN006 OVC014 17/16 A2974 RMK AO2A DZE1156RAB03E16DZB16E24DZB45 SLP071 FZRANO $

RJAF / Matsumoto

NO RADAR

RADIO

18/36 2000x45

民間 civil

過去5時間に発表されたMETARがありません。

RJNS / Shizuoka
VMC

NO RADAR

RADIO

30/12 2500x60

民間 civil

9999

360@3KT

29.68

RJNS 231200Z 36003KT 330V030 9999 -SHRA FEW001 BKN015 BKN025 17/17 Q1005

RJNY / Yaizu-Shizuhama
VMC

NO RADAR

TOWER

27/09 1500x45

自衛隊 military

9999

360@4KT

29.68

RJNY 231030Z 36004KT 9999 -RA FEW020 BKN025 BKN040 19/17 Q1005 RMK 1CU020 5SC025 6SC040 A2969

RJNH / Hamamatsu

RJNH_APP

TOWER

09/27 2550x60

自衛隊 military

過去5時間に発表されたMETARがありません。

RJGG / Chubu
IMC

RJGG_APP

TOWER

36/18 3500x60

民間 civil

6000

300@5KT

29.68

RJGG 231230Z 30005KT 6000 -RA FEW001 SCT003 BKN005 17/17 Q1005 TEMPO 4000 -RA BR

RJNA / Nagoya

RJGG_APP

TOWER

34/16 2740x45

民間 civil

過去5時間に発表されたMETARがありません。

RJNG / Gifu
IMC

RJGG_APP

TOWER

28/10 2710x46

自衛隊 military

3000

310@5KT

29.68

RJNG 231232Z 31005KT 3000 SHRA BR FEW001 SCT003 BKN006 17/16 Q1005 RMK 1ST001 4ST003 6ST006 A2970

RJOE / Akeno

RJOE_APP

TOWER

13/31 500x30
04/22 500x30

自衛隊 military

過去5時間に発表されたMETARがありません。

RJNK / Komatsu
IMC

RJNK_APP

TOWER

06/24 2700x45

共用 dual

4000

000@2KT

29.70

RJNK 231200Z VRB02KT 4000 -SHRA BR SCT003 BKN005 OVC008 17/16 Q1006

RJNW / Noto
IMC

NO RADAR

RADIO

25/07 2000x45

民間 civil

1500

110@3KT

29.68

RJNW 231000Z 11003KT 080V150 1500 R25/P1800N -SHRA BR FEW000 SCT001 BKN002 14/14 Q1005

RJNT / Toyama
VMC

NO RADAR

TOWER

20/02 2000x45

民間 civil

9999

000@1KT

29.70

RJNT 231200Z VRB01KT 9999 -SHRA FEW010 SCT030 BKN070 15/15 Q1006

RJNF / Fukui

NO RADAR

REMOTE

18/36 1200x30

民間 civil

過去5時間に発表されたMETARがありません。

RJBD / Nanki-Shirahama
VMC

NO RADAR

RADIO

15/33 2000x45

民間 civil

9999

040@4KT

29.65

RJBD 231000Z 04004KT 010V090 9999 FEW008 BKN030 BKN050 19/18 Q1004

RJOY / Yao
VMC

RJBB_APP

TOWER

27/09 1490x45
13/31 1200x30

民間 civil

9999

320@5KT

29.65

RJOY 231000Z 32005KT 300V010 9999 FEW005 SCT015 BKN020 20/18 Q1004

RJOO / Osaka
VMC

RJBB_APP

TOWER

32L/14R 3000x60
32R/14L 1830x45

民間 civil

7000

000@2KT

29.68

RJOO 231100Z VRB02KT 7000 -SHRA FEW007 BKN015 BKN030 19/17 Q1005 RMK 1ST007 5CU015 6CU030 A2968

RJOB / Okayama
VMC

RJBB_APP

TOWER

07/25 3000x45

民間 civil

9999

350@5KT

29.70

RJOB 231200Z 35005KT 310V020 9999 PRFG FEW000 SCT025 BKN045 17/16 Q1006

RJBB / Kansai
IMC

RJBB_APP

TOWER

06R/24L 3500x60
06L/24R 4000x60

民間 civil

3500

330@4KT

29.68

RJBB 231247Z 33004KT 3500 -SHRA BR FEW001 BKN003 18/18 Q1005 RMK 1ST001 7ST003 A2969

RJBE / Kobe
IMC

RJBB_APP

TOWER

09/27 2500x60

民間 civil

9999

000@1KT

29.68

RJBE 231200Z VRB01KT 9999 -SHRA FEW002 SCT004 BKN009 19/18 Q1005

RJBT / Tajima
IMC

NO RADAR

REMOTE

01/19 1200x30

民間 civil

2500

350@6KT

29.68

RJBT 230915Z 35006KT 2500 -SHRA BCFG FEW000 SCT005 BKN010 17/17 Q1005 RMK 1ST000 3ST005 5CU010 A2968 FG ALL QUAD

RJOR / Tottori
IMC

NO RADAR

RADIO

10/28 2000x45

民間 civil

3000

300@9KT

29.70

RJOR 231200Z 30009KT 3000 -SHRA BR FEW002 SCT008 BKN010 17/16 Q1006

RJNO / Oki

NO RADAR

REMOTE

07/25 2000x45

民間 civil

過去5時間に発表されたMETARがありません。

RJOH / Miho
VMC

RJOH_APP

TOWER

25/07 2500x45

共用 dual

9999

290@5KT

29.73

RJOH 231200Z 29005KT 9999 FEW015 SCT030 17/14 Q1007

RJOC / Izumo
VMC

RJOH_APP

RADIO

07/25 2000x45

共用 dual

9999

360@3KT

29.70

RJOC 231100Z 36003KT 300V020 9999 FEW008 SCT025 BKN030 17/14 Q1006

RJDG Fukuoka Control

RJOT / Takamatsu
IMC

RJBB_APP

TOWER

26/08 2500x60

民間 civil

1500

270@6KT

29.70

RJOT 231200Z 27006KT 1500 R26/P2000N -SHRA BR FEW000 SCT001 BKN002 17/17 Q1006

RJOK / Kochi
VMC

RJBB_APP

TOWER

32/14 2500x45

民間 civil

6000

310@5KT

29.65

RJOK 231100Z 31005KT 6000 -SHRA FEW003 BKN030 BKN040 20/18 Q1004

RJOS / Tokushima
IMC

RJOS_APP

TOWER

29/11 2500x45

共用 dual

8000

110@7KT

29.68

RJOS 231133Z 11007KT 8000 -SHRA FEW001 BKN004 BKN025 18/18 Q1005 RMK 1ST001 5ST004 7CU025 A2969

RJOA / Hiroshima
IMC

RJOA_APP

TOWER

10/28 3000x60

民間 civil

3000

000@1KT

29.73

RJOA 231237Z VRB01KT 3000 BCFG BR FEW000 SCT010 BKN030 17/16 Q1007 RMK 1ST000 3CU010 5CU030 A2974 FG SE-S AND SW

RJBH / Hiroshimanishi

NO RADAR

Flight Service

04/22 1800x45

民間 civil

過去5時間に発表されたMETARがありません。

RJOI / Iwakuni
VMC

RJOI_APP

TOWER

02/20 2440x60

共用 dual

8000

000@0KT

29.72

RJOI 231155Z 00000KT 8000 BR FEW007 SCT010 BKN015 19/17 A2972 RMK SLP065 60011 70115 T01940172 10194 20183 53017

RJOM / Matsuyama
VMC

RJOI_APP

TOWER

14/32 2500x45

民間 civil

5000

010@3KT

29.70

RJOM 231200Z 01003KT 340V040 5000 -SHRA BR FEW002 SCT005 BKN015 17/17 Q1006

RJOZ / Ozuki
VMC

RJFZ_APP

TOWER

35/17 1201x61
12/30 899x46

自衛隊 military

9999

360@9KT

29.68

RJOZ 231039Z 36009KT 9999 FEW010 SCT015 BKN025 19/17 Q1005 RMK 1CU010 4CU015 6CU025 A2971

RJOF / Hofu
VMC

RJFZ_APP

TOWER

30/12 1180x60
01/19 1480x45

自衛隊 military

9999

310@8KT

29.70

RJOF 231147Z 31008KT 280V340 9999 FEW010 SCT015 BKN030 19/17 Q1006 RMK 1CU010 4CU015 6CU030 A2972

RJDC / Yamaguchi-Ube
VMC

RJFZ_APP

RADIO

07/25 2500x45

民間 civil

9999

350@6KT

29.70

RJDC 231200Z 35006KT 300V030 9999 FEW015 BKN035 19/18 Q1006

RJFR / Kitakyushu
VMC

RJFZ_APP

TOWER

18/36 2500x60

民間 civil

9999

350@9KT

29.73

RJFR 231200Z 35009KT 9999 FEW010 SCT030 BKN040 19/16 Q1007

RJFZ / Tsuiki

RJFZ_APP

TOWER

25/07 2399x46

自衛隊 military

過去5時間に発表されたMETARがありません。

RJOW / Iwami
IMC

NO RADAR

REMOTE

11/29 2000x45

民間 civil

1500

020@4KT

29.70

RJOW 231000Z 02004KT 300V110 1500 R11/2000N -SHRA BR FEW001 BKN002 17/17 Q1006

RJDT / Tsushima
VMC

NO RADAR

REMOTE

32/14 1900x45

民間 civil

9999

010@3KT

29.76

RJDT 231100Z 01003KT 300V050 9999 FEW020 17/15 Q1008

RJFF / Fukuoka
VMC

RJFF_APP

TOWER

16/34 2800x60

民間 civil

9999

300@5KT

29.73

RJFF 231230Z 30005KT 280V340 9999 FEW008 20/17 Q1007 RMK 1ST008 A2975

RJFS / Saga
VMC

RJFF_APP

RADIO

29/11 2000x45

民間 civil

9999

300@5KT

29.73

RJFS 231200Z 30005KT 9999 FEW020 SCT040 20/17 Q1007

RJFA / Ashiya

RJFF_APP

TOWER

12/30 1640x46

自衛隊 military

過去5時間に発表されたMETARがありません。

RJDB / Iki

RJFF_APP

REMOTE

20/02 1200x30

民間 civil

過去5時間に発表されたMETARがありません。

RJFO / Oita
VMC

RJFO_APP

TOWER

01/19 3000x45

民間 civil

9999

000@0KT

29.70

RJFO 231200Z 00000KT 9999 FEW006 SCT010 BKN020 18/18 Q1006

RJFU / Nagasaki
VMC

RJFU_APP

TOWER

32/14 3000x60

民間 civil

9999

340@10KT

29.73

RJFU 231200Z 34010KT 9999 FEW015 19/17 Q1007

RJDU / Omura

RJFU_APP

TOWER

18/36 1200x30

自衛隊 military

過去5時間に発表されたMETARがありません。

RJFE / Fukue

NO RADAR

RADIO

03/21 2000x45

民間 civil

過去5時間に発表されたMETARがありません。

RJDO / Ojika

NO RADAR

REMOTE

03/21 800x30

民間 civil

過去5時間に発表されたMETARがありません。

RJDK / Kamigoto

NO RADAR

REMOTE

17/35 800x30

民間 civil

過去5時間に発表されたMETARがありません。

RJDA / Amakusa

NO RADAR

Flight Service

31/13 1000x30

民間 civil

過去5時間に発表されたMETARがありません。

RJFT / Kumamoto
IMC

RJFT_APP

TOWER

07/25 3000x45

民間 civil

3000

200@3KT

29.73

RJFT 231200Z 20003KT 170V230 3000 -SHRA BR BCFG FEW001 SCT005 BKN007 19/19 Q1007

RJFN / Nyutabaru

RJFM_APP

TOWER

28/10 2701x46

自衛隊 military

過去5時間に発表されたMETARがありません。

RJFM / Miyazaki
VMC

RJFM_APP

TOWER

27/09 2500x45

民間 civil

9999

270@12KT

29.65

RJFM 231200Z 27012KT 9999 FEW010 BKN/// 22/19 Q1004

RJFK / Kagoshima
VMC

RJFK_APP

TOWER

34/16 3000x45

民間 civil

9999

300@8KT

29.70

RJFK 231200Z 30008KT 9999 FEW008 SCT010 BKN015 19/17 Q1006 RMK 1ST008 3CU010 7CU015 A2972

RJFY / Kanoya
VMC

RJFY_APP

TOWER

26L/08R 2250x45
26R/08L 1200x40

自衛隊 military

9999

280@12KT

29.65

RJFY 230823Z 28012KT 9999 FEW005 SCT010 BKN020 22/19 Q1004 RMK 1ST005 4ST010 7CU020 A2965

RJFG / Tanegashima
VMC

NO RADAR

RADIO

31/13 2000x45

民間 civil

9999

290@15KT

29.68

RJFG 230900Z 29015KT 9999 FEW004 SCT007 BKN010 20/19 Q1005

RJFC / Yakushima

NO RADAR

REMOTE

14/32 1500x45

民間 civil

過去5時間に発表されたMETARがありません。

RORG Naha Control

ROAH / Naha
VMC

ROAH_APP

TOWER

36/18 3000x45

共用 dual

9999

330@12KT

29.79

ROAH 231230Z 33012KT 9999 FEW015 BKN020 24/19 Q1009 RMK 1CU015 5CU020 A2981

RORA / Aguni

ROAH_APP

REMOTE

01/19 800x25

民間 civil

過去5時間に発表されたMETARがありません。

ROKJ / Kumejima

ROAH_APP

REMOTE

03/21 2000x45

民間 civil

過去5時間に発表されたMETARがありません。

RODN / Kadena
VMC

ROAH_APP

TOWER

05L/23R 3688x91
05R/23L 3688x61

自衛隊 military

9999

300@6KT

29.81

RODN 231216Z AUTO 30006KT 10SM BKN023 24/19 A2981 RMK AO2 BKN V SCT SLP100

ROTM / Futenma
VMC

ROAH_APP

TOWER

06/24 2740x45

自衛隊 military

9999

320@11KT

29.83

ROTM 231156Z 32011KT 9999 SCT015 SCT020 23/20 A2983 RMK SLP085 STNPR29520 T02280200 10250 20228 53011

RORS / Shimojishima
VMC

RORS_APP

TOWER

17/35 3000x60

民間 civil

9999

010@14KT

29.82

RORS 231000Z 01014KT 9999 FEW016 BKN020 25/22 Q1010

ROMY / Miyako
VMC

RORS_APP

TOWER

04/22 2000x45

民間 civil

9999

010@7KT

29.82

ROMY 231100Z 01007KT 330V040 9999 SCT013 BKN022 25/22 Q1010

ROIG / New Ishigaki
VMC

RORS_APP

TOWER

22/04 2000x45

民間 civil

9999

020@9KT

29.82

ROIG 231100Z 02009KT 9999 FEW015 BKN027 BKN034 26/23 Q1010

RORT / Tarama

RORS_APP

REMOTE

36/18 1500x45

民間 civil

過去5時間に発表されたMETARがありません。

RJKA / Amami
VMC

NO RADAR

RADIO

03/21 2000x45

民間 civil

9999

290@8KT

29.70

RJKA 231000Z 29008KT 250V320 9999 FEW020 BKN025 23/18 Q1006

RJKI / Kikai

NO RADAR

REMOTE

07/25 1200x30

民間 civil

過去5時間に発表されたMETARがありません。

RJKN / Tokunoshima

NO RADAR

REMOTE

19/01 2000x45

民間 civil

過去5時間に発表されたMETARがありません。

RJKB / Okierabu

NO RADAR

REMOTE

04/22 1350x45

民間 civil

過去5時間に発表されたMETARがありません。

RORY / Yoron
VMC

NO RADAR

REMOTE

32/14 1320x30

民間 civil

9999

320@16KT

29.79

RORY 231200Z AUTO 32016KT 9999 BKN020 23/19 Q1009

RORK / Kitadaito

NO RADAR

REMOTE

03/21 1500x45

民間 civil

過去5時間に発表されたMETARがありません。

ROMD / Minami-daito

NO RADAR

REMOTE

02/20 1500x45

民間 civil

過去5時間に発表されたMETARがありません。

ROYN / Yonaguni
VMC

NO RADAR

REMOTE

26/08 2000x45

民間 civil

9999

040@15KT

29.85

ROYN 231200Z AUTO 04015KT 9999 BKN017 OVC023 26/23 Q1011

RORH / Hateruma

NO RADAR

REMOTE

02/20 800x25

民間 civil

過去5時間に発表されたMETARがありません。

ROKR / Kerama

NO RADAR

REMOTE

02/20 800x25

民間 civil

過去5時間に発表されたMETARがありません。